Time;durP1;ratioP1;P1;durP2;ratioP2;P2;SDS_P1;SDS_P2;PMS_P1;PMS_P2;Temp;Humidity;BMP_temperature;BMP_pressure;BME280_temperature;BME280_humidity;BME280_pressure;Samples;Min_cycle;Max_cycle;Signal;HPM_P1;HPM_P2
2022/05/04 00:01:18;;;;;;;;;31.50;26.75;;;;;15.92;51.78;101345.44;5029279;28;46004;-69
2022/05/04 00:03:43;;;;;;;;;32.25;24.75;;;;;15.83;52.16;101327.34;5032396;28;44980;-72
2022/05/04 00:06:10;;;;;;;;;37.00;28.00;;;;;16.02;51.77;101358.19;5032660;28;45013;-71
2022/05/04 00:08:37;;;;;;;;;31.25;27.25;;;;;16.07;52.26;101361.84;5029922;28;45018;-71
2022/05/04 00:11:02;;;;;;;;;25.25;24.25;;;;;16.09;51.81;101367.25;5030682;28;45128;-70
2022/05/04 00:13:28;;;;;;;;;32.25;27.25;;;;;16.05;52.28;101363.56;5029200;28;45472;-70
2022/05/04 00:15:54;;;;;;;;;31.50;26.25;;;;;16.07;51.91;101367.22;5029116;28;45609;-70
2022/05/04 00:18:19;;;;;;;;;33.75;29.25;;;;;16.11;52.06;101363.66;5029295;28;45544;-69
2022/05/04 00:20:45;;;;;;;;;23.00;21.50;;;;;16.13;51.73;101353.81;5005902;28;45498;-70
2022/05/04 00:23:10;;;;;;;;;29.50;26.00;;;;;16.13;51.81;101361.00;5027877;28;45485;-71
2022/05/04 00:25:36;;;;;;;;;27.50;25.50;;;;;16.09;52.22;101356.47;5028531;28;45245;-70
2022/05/04 00:28:02;;;;;;;;;30.25;28.00;;;;;16.05;51.66;101352.78;5030964;28;45525;-71
2022/05/04 00:30:28;;;;;;;;;32.75;28.00;;;;;16.03;51.87;101351.88;5029902;28;45193;-70
2022/05/04 00:32:54;;;;;;;;;36.25;31.25;;;;;15.75;52.36;101307.44;5024110;28;45186;-70
2022/05/04 00:35:23;;;;;;;;;29.50;28.00;;;;;15.91;52.23;101344.53;5032049;28;45483;-70
2022/05/04 00:37:48;;;;;;;;;36.00;32.25;;;;;15.90;52.21;101350.78;5031687;28;45429;-71
2022/05/04 00:40:13;;;;;;;;;33.75;27.75;;;;;15.91;52.45;101346.34;5030175;28;46107;-70
2022/05/04 00:42:39;;;;;;;;;32.50;28.00;;;;;15.80;52.58;101319.22;5030287;28;45549;-70
2022/05/04 00:45:05;;;;;;;;;30.00;25.75;;;;;15.91;52.24;101338.25;5030587;28;45895;-70
2022/05/04 00:47:31;;;;;;;;;38.25;27.25;;;;;15.89;52.57;101329.22;5031106;28;45210;-71
2022/05/04 00:49:57;;;;;;;;;29.75;24.25;;;;;15.90;52.72;101333.72;5031880;28;45144;-70
2022/05/04 00:52:22;;;;;;;;;33.50;28.50;;;;;15.46;52.43;101264.84;5031717;28;45351;-69
2022/05/04 00:54:50;;;;;;;;;27.25;23.75;;;;;15.88;52.25;101340.91;5031331;28;45793;-69
2022/05/04 00:58:54;;;;;;;;;33.00;28.75;;;;;15.79;52.66;101347.06;5030860;28;45068;-70
2022/05/04 01:00:06;;;;;;;;;36.50;30.25;;;;;15.76;52.59;101350.59;5031575;28;45069;-69
2022/05/04 01:02:31;;;;;;;;;30.50;28.00;;;;;15.73;52.51;101360.41;5013500;28;45278;-69
2022/05/04 01:04:57;;;;;;;;;33.75;27.25;;;;;15.74;52.39;101348.72;5029630;28;45245;-71
2022/05/04 01:07:23;;;;;;;;;27.25;26.50;;;;;15.72;52.54;101348.69;5031089;28;45010;-70
2022/05/04 01:09:49;;;;;;;;;33.00;29.00;;;;;15.71;52.58;101349.59;5031688;28;45095;-70
2022/05/04 01:12:15;;;;;;;;;32.50;28.25;;;;;15.71;52.68;101348.72;5031790;28;45178;-70
2022/05/04 01:14:41;;;;;;;;;29.25;27.75;;;;;15.64;52.63;101351.31;5031073;28;45613;-70
2022/05/04 01:17:06;;;;;;;;;30.00;26.75;;;;;15.60;52.79;101349.44;5031367;28;45221;-69
2022/05/04 01:19:31;;;;;;;;;31.25;28.50;;;;;15.60;52.88;101344.03;5031768;28;45275;-69
2022/05/04 01:21:57;;;;;;;;;36.00;30.75;;;;;15.47;53.20;101342.03;5032226;28;45239;-69
2022/05/04 01:24:22;;;;;;;;;37.75;30.75;;;;;15.36;53.15;101330.19;5030905;28;45403;-70
2022/05/04 01:26:48;;;;;;;;;26.75;24.50;;;;;15.50;53.00;101355.56;5026431;28;45525;-70
2022/05/04 01:29:14;;;;;;;;;32.25;29.25;;;;;15.48;53.34;101347.44;5027526;28;45022;-71
2022/05/04 01:31:39;;;;;;;;;27.00;23.50;;;;;15.51;52.63;101359.16;5031711;28;45027;-70
2022/05/04 01:34:04;;;;;;;;;32.25;30.75;;;;;15.53;52.90;101354.72;5031348;28;45517;-70
2022/05/04 01:36:30;;;;;;;;;29.75;27.25;;;;;15.39;52.46;101338.31;5031428;28;44980;-71
2022/05/04 01:38:55;;;;;;;;;27.00;25.25;;;;;15.55;52.98;101356.53;5031471;28;44982;-71
2022/05/04 01:44:06;;;;;;;;;21.75;18.75;;;;;15.58;53.14;101363.78;5030915;28;45499;-69
2022/05/04 01:46:31;;;;;;;;;34.50;28.50;;;;;15.47;53.00;101342.94;5028432;28;45148;-70
2022/05/04 01:48:57;;;;;;;;;35.50;30.00;;;;;15.43;53.40;101330.31;5030952;28;45097;-70
2022/05/04 01:51:23;;;;;;;;;27.75;24.75;;;;;15.50;53.08;101328.63;5031768;28;45141;-71
2022/05/04 01:53:49;;;;;;;;;28.50;26.75;;;;;15.52;53.37;101348.41;5034144;28;45714;-71
2022/05/04 01:56:14;;;;;;;;;27.75;25.00;;;;;15.43;53.62;101351.88;5034312;28;45033;-70
2022/05/04 01:58:40;;;;;;;;;27.50;25.25;;;;;15.43;53.38;101348.28;5034208;28;45091;-70
2022/05/04 02:01:06;;;;;;;;;32.25;29.00;;;;;15.41;53.72;101358.09;5034428;28;45182;-70
2022/05/04 02:03:31;;;;;;;;;28.25;24.50;;;;;15.16;53.62;101320.00;5031420;28;45263;-71
2022/05/04 02:05:57;;;;;;;;;27.25;22.00;;;;;15.40;53.40;101361.69;5031694;28;45561;-70
2022/05/04 02:08:22;;;;;;;;;30.00;27.00;;;;;15.37;53.73;101367.00;5031723;28;45359;-70
2022/05/04 02:10:49;;;;;;;;;35.50;28.25;;;;;15.40;53.33;101364.38;5031270;28;45619;-71
2022/05/04 02:13:14;;;;;;;;;31.75;27.50;;;;;15.21;53.67;101331.78;5033237;28;45542;-69
2022/05/04 02:15:40;;;;;;;;;30.25;29.75;;;;;15.35;53.64;101352.63;5032299;28;45715;-70
2022/05/04 02:18:05;;;;;;;;;34.00;28.00;;;;;15.26;53.81;101366.81;5030055;28;44958;-70
2022/05/04 02:20:30;;;;;;;;;32.25;30.00;;;;;15.23;53.62;101358.72;5033922;28;45375;-69
2022/05/04 02:22:56;;;;;;;;;31.75;27.75;;;;;15.15;53.84;101344.22;5031752;28;46078;-70
2022/05/04 02:25:21;;;;;;;;;34.50;30.50;;;;;14.96;53.57;101310.69;5033210;28;45115;-71
2022/05/04 02:27:46;;;;;;;;;27.00;26.00;;;;;15.17;53.83;101351.44;5016050;28;45237;-71
2022/05/04 02:30:13;;;;;;;;;32.00;28.00;;;;;15.16;53.78;101356.78;5034255;28;45147;-71
2022/05/04 02:32:39;;;;;;;;;30.00;28.00;;;;;15.02;53.52;101316.19;5032994;28;45675;-70
2022/05/04 02:37:54;;;;;;;;;36.00;29.75;;;;;15.22;53.86;101351.50;5033578;28;45050;-70
2022/05/04 02:40:20;;;;;;;;;35.00;29.25;;;;;15.25;53.41;101354.25;5034128;28;45298;-70
2022/05/04 02:42:46;;;;;;;;;41.75;34.50;;;;;15.07;53.63;101325.25;5030468;28;45147;-70
2022/05/04 02:45:11;;;;;;;;;52.50;38.00;;;;;15.24;53.22;101361.41;5033441;28;45473;-71
2022/05/04 02:47:38;;;;;;;;;70.00;53.50;;;;;15.22;53.45;101352.41;5031807;28;45018;-70
2022/05/04 02:50:05;;;;;;;;;85.00;73.50;;;;;15.25;53.48;101354.25;5031389;28;45200;-69
2022/05/04 02:52:30;;;;;;;;;73.50;58.25;;;;;15.13;53.00;101335.19;5000000;28;48146;-71
2022/05/04 02:54:55;;;;;;;;;63.75;51.25;;;;;15.26;52.85;101350.66;5033170;28;45071;-70
2022/05/04 02:57:21;;;;;;;;;63.25;48.50;;;;;15.13;53.17;101322.66;5033746;28;45353;-71
2022/05/04 02:59:46;;;;;;;;;67.50;52.75;;;;;15.15;53.00;101336.16;5032705;28;45205;-71
2022/05/04 03:02:27;;;;;;;;;60.00;47.25;;;;;15.25;53.22;101346.19;5030447;28;45474;-71
2022/05/04 03:04:52;;;;;;;;;80.75;73.25;;;;;15.19;53.28;101333.50;5032312;28;45042;-70
2022/05/04 03:07:18;;;;;;;;;83.75;77.50;;;;;14.97;53.22;101307.13;5031624;28;45194;-72
2022/05/04 03:09:43;;;;;;;;;95.75;80.75;;;;;15.08;53.56;101335.13;5031211;28;45079;-71
2022/05/04 03:12:09;;;;;;;;;84.50;71.00;;;;;14.91;53.45;101316.91;5028979;28;45816;-71
2022/05/04 03:14:35;;;;;;;;;77.00;65.50;;;;;14.88;53.17;101315.94;5013383;28;45137;-71
2022/05/04 03:17:00;;;;;;;;;70.50;53.50;;;;;14.92;53.52;101320.50;5031638;28;45040;-69
2022/05/04 03:19:25;;;;;;;;;71.75;58.25;;;;;14.73;53.31;101289.66;5028094;28;45088;-69
2022/05/04 03:21:51;;;;;;;;;68.00;53.25;;;;;14.94;53.78;101324.13;5028975;28;45860;-72
2022/05/04 03:24:17;;;;;;;;;71.25;58.75;;;;;14.96;53.30;101324.16;5032918;28;45165;-70
2022/05/04 03:26:43;;;;;;;;;71.00;57.25;;;;;14.99;53.76;101332.28;5033045;28;45054;-71
2022/05/04 03:29:09;;;;;;;;;68.50;50.75;;;;;14.59;53.58;101265.22;5033887;28;45110;-70
2022/05/04 03:31:35;;;;;;;;;58.50;44.50;;;;;14.90;53.38;101311.50;5032891;28;45176;-70
2022/05/04 03:34:01;;;;;;;;;56.00;43.75;;;;;14.98;53.49;101331.38;5031767;28;45101;-71
2022/05/04 03:36:27;;;;;;;;;48.75;39.00;;;;;14.93;53.60;101328.59;5027308;28;44944;-70
2022/05/04 03:38:52;;;;;;;;;49.25;35.25;;;;;14.80;53.92;101307.75;5031603;28;45175;-70
2022/05/04 03:41:18;;;;;;;;;49.50;38.00;;;;;14.88;53.91;101326.69;5032706;28;45497;-69
2022/05/04 03:43:44;;;;;;;;;46.25;35.25;;;;;14.85;53.87;101332.00;5032681;28;45015;-70
2022/05/04 03:46:17;;;;;;;;;40.50;32.00;;;;;14.86;53.57;101326.66;5014804;28;45242;-69
2022/05/04 03:48:44;;;;;;;;;43.25;33.25;;;;;14.82;53.75;101330.19;5032437;28;45327;-70
2022/05/04 03:51:14;;;;;;;;;33.25;28.00;;;;;14.85;53.93;101324.88;5032112;28;45610;-71
2022/05/04 03:53:40;;;;;;;;;43.25;33.25;;;;;14.83;53.67;101332.00;5031948;28;45280;-70
2022/05/04 03:56:05;;;;;;;;;46.75;33.00;;;;;14.76;53.65;101316.63;5021862;28;45219;-70
2022/05/04 03:58:31;;;;;;;;;30.00;24.75;;;;;14.76;53.69;101322.00;5033041;28;45086;-70
2022/05/04 04:00:56;;;;;;;;;41.50;31.25;;;;;14.83;53.60;101323.94;5032394;28;45544;-70
2022/05/04 04:03:22;;;;;;;;;35.25;27.50;;;;;14.60;53.40;101283.19;5032738;28;45237;-71
2022/05/04 04:05:47;;;;;;;;;37.50;29.50;;;;;14.69;53.69;101312.00;5032955;28;45236;-71
2022/05/04 04:08:12;;;;;;;;;27.50;23.75;;;;;14.81;53.62;101327.47;5032225;28;45004;-72
2022/05/04 04:10:38;;;;;;;;;32.25;31.25;;;;;14.65;53.51;101292.22;5032010;28;45327;-71
2022/05/04 04:13:06;;;;;;;;;35.50;30.25;;;;;14.69;52.96;101309.31;5031830;28;45163;-69
2022/05/04 04:15:32;;;;;;;;;35.25;30.00;;;;;14.79;53.70;101319.38;5031789;28;45058;-69
2022/05/04 04:17:57;;;;;;;;;41.75;30.25;;;;;14.59;54.19;101294.81;5032403;28;45160;-71
2022/05/04 04:23:06;;;;;;;;;34.25;28.50;;;;;14.53;53.90;101308.97;5032586;28;45127;-71
2022/05/04 04:25:32;;;;;;;;;34.00;30.75;;;;;14.55;53.98;101326.06;5028715;28;45010;-70
2022/05/04 04:27:57;;;;;;;;;33.25;30.00;;;;;14.56;54.48;101346.69;5026803;28;45263;-71
2022/05/04 04:30:23;;;;;;;;;40.75;32.00;;;;;14.34;54.15;101301.47;5031286;28;46459;-69
2022/05/04 04:32:48;;;;;;;;;33.75;31.25;;;;;14.49;54.77;101334.00;5031894;28;45124;-70
2022/05/04 04:35:13;;;;;;;;;37.25;28.50;;;;;14.54;54.24;101334.09;5031954;28;45134;-71
2022/05/04 04:37:39;;;;;;;;;37.50;29.50;;;;;14.51;54.40;101328.66;5032472;28;46424;-71
2022/05/04 04:40:06;;;;;;;;;41.75;28.25;;;;;14.56;54.30;101337.72;5032044;28;45277;-71
2022/05/04 04:42:31;;;;;;;;;30.00;27.00;;;;;14.41;54.61;101306.06;5031738;28;45180;-71
2022/05/04 04:44:57;;;;;;;;;36.75;31.25;;;;;14.60;54.38;101336.03;5031547;28;44922;-71
2022/05/04 04:47:22;;;;;;;;;33.50;30.00;;;;;14.26;53.81;101277.09;5007903;28;45287;-71
2022/05/04 04:49:47;;;;;;;;;35.50;30.75;;;;;14.23;54.39;101273.47;5031587;28;50139;-71
2022/05/04 04:52:12;;;;;;;;;37.00;30.75;;;;;14.53;53.95;101338.56;5031529;28;45153;-69
2022/05/04 04:54:38;;;;;;;;;33.50;30.00;;;;;14.60;54.13;101339.66;5031392;28;45058;-71
2022/05/04 04:57:03;;;;;;;;;35.75;30.50;;;;;14.51;53.67;101332.25;5030457;28;45350;-71
2022/05/04 04:59:29;;;;;;;;;39.25;30.50;;;;;14.59;53.88;101328.81;5029267;28;45522;-71
2022/05/04 05:01:54;;;;;;;;;33.75;30.25;;;;;14.45;53.88;101318.72;5031857;28;45219;-71
2022/05/04 05:04:19;;;;;;;;;33.00;30.25;;;;;14.60;54.04;101350.41;5031202;28;45100;-71
2022/05/04 05:06:45;;;;;;;;;37.00;31.00;;;;;14.59;54.03;101355.72;5030252;28;45230;-71
2022/05/04 05:09:10;;;;;;;;;34.75;31.00;;;;;14.60;54.53;101357.53;5030721;28;45146;-71
2022/05/04 05:11:35;;;;;;;;;37.00;32.00;;;;;14.53;54.21;101348.41;5030753;28;45165;-71
2022/05/04 05:16:44;;;;;;;;;39.75;32.00;;;;;14.52;54.04;101357.38;5030836;28;45219;-71
2022/05/04 05:19:10;;;;;;;;;36.00;30.00;;;;;14.52;53.74;101363.66;5031037;28;48982;-71
2022/05/04 05:21:35;;;;;;;;;33.25;30.75;;;;;14.56;53.74;101357.44;5030487;28;45019;-71
2022/05/04 05:24:00;;;;;;;;;36.50;28.25;;;;;14.48;53.84;101344.75;5029732;28;45180;-71
2022/05/04 05:26:25;;;;;;;;;36.25;31.75;;;;;14.45;53.89;101321.41;5033119;28;45053;-70
2022/05/04 05:28:51;;;;;;;;;29.50;29.00;;;;;14.73;53.42;101356.91;5027170;28;45169;-71
2022/05/04 05:31:16;;;;;;;;;40.75;29.75;;;;;14.61;53.21;101343.25;5035296;28;45208;-71
2022/05/04 05:33:45;;;;;;;;;35.00;29.50;;;;;14.78;53.21;101363.28;5034173;28;45077;-71
2022/05/04 05:36:10;;;;;;;;;33.50;30.00;;;;;14.76;53.17;101362.34;5029751;28;45103;-71
2022/05/04 05:38:36;;;;;;;;;38.00;33.50;;;;;14.69;52.93;101361.31;5033135;28;45728;-70
2022/05/04 05:41:01;;;;;;;;;31.25;27.50;;;;;14.56;53.17;101345.78;5032409;28;45475;-71
2022/05/04 05:43:28;;;;;;;;;41.25;31.75;;;;;14.62;53.52;101374.59;5030577;28;45118;-71
2022/05/04 05:45:53;;;;;;;;;34.00;29.50;;;;;14.32;53.03;101314.88;5036190;28;45317;-70
2022/05/04 05:48:20;;;;;;;;;34.25;32.00;;;;;14.62;53.37;101371.91;5033519;28;45235;-71
2022/05/04 05:50:46;;;;;;;;;48.50;39.50;;;;;14.69;53.12;101372.09;5033496;28;45137;-71
2022/05/04 05:53:14;;;;;;;;;40.25;30.00;;;;;14.70;53.04;101363.16;5034690;28;45188;-71
2022/05/04 05:55:40;;;;;;;;;45.00;35.00;;;;;14.62;52.99;101334.28;5033821;28;45045;-71
2022/05/04 05:58:05;;;;;;;;;34.75;29.75;;;;;14.90;52.47;101373.38;5034136;28;45561;-71
2022/05/04 06:00:30;;;;;;;;;42.50;32.50;;;;;14.88;52.45;101373.34;5027254;28;45235;-71
2022/05/04 06:02:55;;;;;;;;;47.00;35.75;;;;;14.50;52.44;101303.56;5033934;28;45200;-71
2022/05/04 06:05:21;;;;;;;;;48.75;36.25;;;;;14.62;52.49;101316.38;5033311;28;46029;-71
2022/05/04 06:07:48;;;;;;;;;42.25;33.50;;;;;14.80;52.05;101349.84;5033197;28;45215;-71
2022/05/04 06:10:14;;;;;;;;;38.00;34.00;;;;;14.91;52.16;101373.41;5030975;28;45088;-71
2022/05/04 06:12:40;;;;;;;;;32.00;27.75;;;;;14.81;52.40;101349.88;5014812;28;45282;-71
2022/05/04 06:15:10;;;;;;;;;34.25;31.75;;;;;15.06;52.06;101378.16;5029083;28;47168;-71
2022/05/04 06:17:36;;;;;;;;;42.25;32.50;;;;;14.76;51.81;101319.31;5031364;28;45145;-71
2022/05/04 06:20:02;;;;;;;;;32.25;29.50;;;;;15.05;51.68;101387.13;5033995;28;45057;-71
2022/05/04 06:22:28;;;;;;;;;40.50;32.75;;;;;15.02;51.98;101389.75;5034140;28;45117;-71
2022/05/04 06:24:53;;;;;;;;;36.75;30.75;;;;;15.00;51.92;101401.38;5038146;28;45140;-71
2022/05/04 06:27:18;;;;;;;;;31.50;28.25;;;;;15.04;52.04;101403.22;5028816;28;45141;-71
2022/05/04 06:35:11;;;;;;;;;29.00;27.75;;;;;15.07;52.23;101397.91;5015395;28;45545;-72
2022/05/04 06:37:37;;;;;;;;;33.00;30.00;;;;;14.91;51.84;101369.78;5013868;28;45286;-71
2022/05/04 06:40:03;;;;;;;;;32.50;27.50;;;;;15.02;51.71;101397.81;5015132;28;45349;-71
2022/05/04 06:42:29;;;;;;;;;37.25;32.25;;;;;15.19;51.73;101405.28;5013992;28;45383;-71
2022/05/04 06:44:54;;;;;;;;;46.00;38.00;;;;;14.76;51.71;101313.94;5014364;28;45590;-71
2022/05/04 06:47:20;;;;;;;;;41.25;32.25;;;;;15.32;51.28;101391.16;5014288;28;46189;-71
2022/05/04 06:49:45;;;;;;;;;46.75;36.75;;;;;15.40;51.37;101394.00;5014923;28;45480;-71
2022/05/04 06:52:10;;;;;;;;;39.25;32.00;;;;;15.04;50.63;101319.81;5015451;28;45700;-71
2022/05/04 06:54:37;;;;;;;;;34.25;30.25;;;;;15.57;51.23;101379.00;5015033;28;45399;-71
2022/05/04 06:57:02;;;;;;;;;39.00;30.00;;;;;15.60;50.61;101376.38;5014980;28;47190;-71
2022/05/04 06:59:28;;;;;;;;;44.50;34.25;;;;;15.64;50.88;101380.94;5014992;28;45473;-71
2022/05/04 07:01:54;;;;;;;;;43.25;32.75;;;;;15.71;50.68;101368.47;5015498;28;45270;-72
2022/05/04 07:04:20;;;;;;;;;40.50;34.00;;;;;15.87;50.30;101379.50;5015413;28;45558;-71
2022/05/04 07:06:46;;;;;;;;;41.25;32.50;;;;;15.97;49.81;101389.50;4996973;28;46998;-71
2022/05/04 07:09:11;;;;;;;;;42.25;33.25;;;;;15.99;49.56;101380.59;5014917;28;45478;-71
2022/05/04 07:11:36;;;;;;;;;40.50;33.00;;;;;16.07;49.80;101388.78;5015578;28;45922;-72
2022/05/04 07:14:02;;;;;;;;;43.00;34.50;;;;;16.07;50.09;101382.47;5014370;28;45505;-71
2022/05/04 07:16:27;;;;;;;;;43.25;33.00;;;;;16.12;49.88;101391.53;5014701;28;45347;-72
2022/05/04 07:18:53;;;;;;;;;40.25;35.25;;;;;16.01;49.81;101361.75;5014497;28;48893;-72
2022/05/04 07:21:18;;;;;;;;;45.50;36.00;;;;;16.18;50.04;101386.22;5015380;28;45485;-72
2022/05/04 07:23:43;;;;;;;;;38.25;32.50;;;;;16.22;49.61;101393.47;5015141;28;45447;-71
2022/05/04 07:26:09;;;;;;;;;52.75;39.75;;;;;16.17;50.05;101395.22;5014628;28;46289;-70
2022/05/04 07:28:34;;;;;;;;;50.00;38.50;;;;;15.96;49.99;101372.44;4997038;28;45608;-70
2022/05/04 07:30:59;;;;;;;;;41.50;34.50;;;;;16.06;50.37;101408.53;4997080;28;45675;-71
2022/05/04 07:33:25;;;;;;;;;48.00;40.00;;;;;16.09;50.04;101405.88;5014996;28;45630;-71
2022/05/04 07:35:50;;;;;;;;;59.50;48.00;;;;;16.17;49.84;101406.91;5014611;28;46493;-70
2022/05/04 07:38:15;;;;;;;;;57.50;44.75;;;;;16.12;49.62;101407.69;5014316;28;45546;-71
2022/05/04 07:43:25;;;;;;;;;50.00;40.25;;;;;16.11;49.49;101389.72;5014741;28;45462;-71
2022/05/04 07:45:51;;;;;;;;;49.75;35.00;;;;;16.30;49.94;101424.16;5014127;28;45475;-71
2022/05/04 07:48:16;;;;;;;;;37.50;29.75;;;;;16.34;49.45;101417.91;5014455;28;45482;-71
2022/05/04 07:50:41;;;;;;;;;43.00;34.50;;;;;16.36;49.41;101418.81;5006857;28;45668;-72
2022/05/04 07:53:07;;;;;;;;;43.00;35.75;;;;;16.31;49.99;101404.38;5014698;28;45432;-71
2022/05/04 07:55:33;;;;;;;;;53.50;41.00;;;;;16.42;49.52;101422.50;5013974;28;45937;-71
2022/05/04 07:57:59;;;;;;;;;45.50;38.25;;;;;16.25;49.63;101392.59;5014138;28;45459;-71
2022/05/04 08:05:53;;;;;;;;;55.25;44.50;;;;;16.47;49.90;101418.09;5013671;28;45415;-71
2022/05/04 08:08:19;;;;;;;;;50.00;39.75;;;;;16.06;49.61;101326.78;5013702;28;45281;-71
2022/05/04 08:10:44;;;;;;;;;43.50;37.75;;;;;16.57;49.49;101420.00;5012819;28;45313;-71
2022/05/04 08:13:10;;;;;;;;;38.00;32.50;;;;;16.45;49.55;101395.56;5014640;28;45436;-71
2022/05/04 08:15:37;;;;;;;;;50.25;36.25;;;;;16.54;49.12;101401.06;5014165;28;45326;-71
2022/05/04 08:18:03;;;;;;;;;45.50;36.75;;;;;16.70;48.92;101430.06;5013890;28;45403;-71
2022/05/04 08:20:35;;;;;;;;;44.50;36.75;;;;;16.42;48.89;101373.97;5133137;27;45494;-71
2022/05/04 08:23:00;;;;;;;;;38.75;32.75;;;;;16.65;49.12;101398.53;5111451;27;45571;-71
2022/05/04 08:25:26;;;;;;;;;44.50;34.50;;;;;16.89;48.26;101428.50;5111370;27;45535;-71
2022/05/04 08:27:51;;;;;;;;;45.25;35.00;;;;;16.82;49.15;101414.91;5093332;27;45301;-71
2022/05/04 08:30:17;;;;;;;;;51.00;40.50;;;;;16.49;48.57;101346.16;5111352;27;46234;-71
2022/05/04 08:32:45;;;;;;;;;44.50;37.50;;;;;16.83;48.95;101403.19;5111488;27;45393;-71
2022/05/04 08:35:12;;;;;;;;;45.00;38.50;;;;;17.06;48.29;101420.59;5111548;27;45398;-72
2022/05/04 08:37:38;;;;;;;;;44.75;37.00;;;;;17.11;47.89;101426.06;5112047;27;45590;-72
2022/05/04 08:40:04;;;;;;;;;36.50;34.25;;;;;17.09;48.39;101408.91;5111176;27;46202;-71
2022/05/04 08:42:29;;;;;;;;;40.00;34.25;;;;;17.06;48.00;101393.59;5111181;27;45644;-71
2022/05/04 08:44:57;;;;;;;;;34.50;33.75;;;;;17.27;47.58;101410.88;5111292;27;45271;-71
2022/05/04 08:47:22;;;;;;;;;41.75;36.75;;;;;17.24;47.49;101421.66;5111526;27;45562;-71
2022/05/04 08:49:48;;;;;;;;;43.50;36.00;;;;;17.26;47.37;101419.91;5110817;27;47202;-71
2022/05/04 08:52:15;;;;;;;;;40.50;35.25;;;;;17.27;47.84;101419.91;5111195;27;45302;-70
2022/05/04 08:54:42;;;;;;;;;48.50;36.75;;;;;17.32;47.55;101428.03;5111302;27;45719;-72
2022/05/04 08:57:08;;;;;;;;;41.75;35.75;;;;;17.18;47.79;101394.63;5111280;27;45288;-72
2022/05/04 08:59:34;;;;;;;;;39.75;32.75;;;;;17.25;47.40;101412.69;5110619;27;46102;-72
2022/05/04 09:01:59;;;;;;;;;42.25;34.75;;;;;17.42;47.48;101434.44;5111271;27;45456;-72
2022/05/04 09:04:25;;;;;;;;;45.50;35.25;;;;;17.45;47.09;101429.94;5111022;27;45493;-71
2022/05/04 09:06:50;;;;;;;;;48.50;34.50;;;;;17.40;46.77;101406.50;5111140;27;45396;-71
2022/05/04 09:09:16;;;;;;;;;40.75;34.50;;;;;17.53;47.14;101430.03;5108743;27;46309;-71
2022/05/04 09:11:43;;;;;;;;;42.50;36.50;;;;;17.66;46.71;101441.84;5111053;27;45612;-71
2022/05/04 09:14:15;;;;;;;;;34.25;26.00;;;;;17.78;46.35;101436.53;5110861;27;45472;-71
2022/05/04 09:16:40;;;;;;;;;29.00;28.25;;;;;17.85;45.75;101438.41;5110587;27;45511;-71
2022/05/04 09:19:08;;;;;;;;;60.75;47.50;;;;;17.74;46.32;101423.00;5110056;27;45973;-70
2022/05/04 09:21:33;;;;;;;;;35.00;30.25;;;;;17.92;46.17;101433.06;5110617;27;45433;-71
2022/05/04 09:23:59;;;;;;;;;30.25;28.75;;;;;18.02;46.28;101435.84;5110706;27;45415;-71
2022/05/04 09:26:24;;;;;;;;;43.50;31.25;;;;;18.08;45.34;101437.69;5110711;27;45322;-70
2022/05/04 09:28:52;;;;;;;;;47.50;34.50;;;;;18.13;45.09;101433.22;5110215;27;45375;-70
2022/05/04 09:31:18;;;;;;;;;35.00;25.25;;;;;18.23;44.76;101429.69;5102728;27;45697;-71
2022/05/04 09:33:51;;;;;;;;;37.00;32.75;;;;;18.32;44.68;101423.41;5116556;27;45784;-72
2022/05/04 09:36:35;;;;;;;;;39.00;32.75;;;;;18.21;44.81;101417.03;5116795;27;45240;-72
2022/05/04 09:45:16;;;;;;;;;47.25;36.75;;;;;17.94;45.26;101407.84;5115938;27;45454;-70
2022/05/04 09:47:44;;;;;;;;;37.25;30.75;;;;;17.97;45.67;101405.19;5116211;27;45406;-71
2022/05/04 09:50:11;;;;;;;;;44.50;33.50;;;;;17.99;44.77;101402.50;5116002;27;45298;-73
2022/05/04 09:52:42;;;;;;;;;36.00;28.00;;;;;18.02;45.02;101408.81;5116150;27;45282;-71
2022/05/04 09:55:26;;;;;;;;;33.25;28.75;;;;;18.04;44.94;101398.00;5116216;27;46073;-71
2022/05/04 09:57:53;;;;;;;;;36.75;31.50;;;;;18.08;44.78;101402.53;5116231;27;45630;-70
2022/05/04 10:00:21;;;;;;;;;35.00;30.25;;;;;17.99;45.27;101381.75;5079681;27;46510;-71
2022/05/04 10:02:54;;;;;;;;;34.25;28.25;;;;;18.14;44.73;101402.56;5113870;27;45548;-72
2022/05/04 10:05:20;;;;;;;;;42.75;32.50;;;;;17.96;44.54;101367.31;5115720;27;45293;-72
2022/05/04 10:07:50;;;;;;;;;34.50;29.00;;;;;18.09;44.70;101389.94;5115627;27;45394;-72
2022/05/04 10:10:24;;;;;;;;;34.25;31.50;;;;;18.07;44.64;101395.31;5115169;27;46351;-72
2022/05/04 10:12:50;;;;;;;;;33.75;30.75;;;;;18.26;44.46;101406.25;5115465;27;45460;-71
2022/05/04 10:15:17;;;;;;;;;28.00;24.75;;;;;18.28;43.71;101385.50;5115108;27;45377;-71
2022/05/04 10:18:06;;;;;;;;;27.75;23.00;;;;;18.47;43.65;101400.03;5115225;27;45519;-72
2022/05/04 10:21:00;;;;;;;;;36.50;26.00;;;;;18.64;43.44;101406.41;5082948;27;48617;-72
2022/05/04 10:23:31;;;;;;;;;37.00;25.25;;;;;18.41;42.74;101341.38;5115629;27;45397;-73
2022/05/04 10:25:57;;;;;;;;;32.00;26.25;;;;;18.84;42.55;101401.13;5115481;27;45539;-72
2022/05/04 10:28:23;;;;;;;;;36.50;28.50;;;;;18.93;42.53;101401.13;5096840;27;45400;-72
2022/05/04 10:30:56;;;;;;;;;31.75;29.25;;;;;19.08;42.50;101397.53;5115633;27;46337;-73
2022/05/04 10:33:31;;;;;;;;;34.00;29.50;;;;;19.17;42.08;101388.50;5117460;27;45539;-73
2022/05/04 10:35:56;;;;;;;;;25.25;22.00;;;;;19.39;41.61;101399.38;5116632;27;45636;-72
2022/05/04 10:38:28;;;;;;;;;21.00;19.75;;;;;19.52;40.78;101402.09;5116679;27;45471;-71
2022/05/04 10:41:02;;;;;;;;;35.25;26.25;;;;;19.58;40.62;101406.59;5102879;27;45788;-72
2022/05/04 10:43:36;;;;;;;;;21.75;21.00;;;;;19.58;40.80;101408.41;5094190;27;45552;-72
2022/05/04 10:46:09;;;;;;;;;28.25;24.50;;;;;19.54;41.01;101409.31;5095172;27;45358;-71
2022/05/04 10:48:36;;;;;;;;;39.25;27.25;;;;;19.51;41.03;101405.69;5077256;27;45537;-72
2022/05/04 10:51:18;;;;;;;;;28.75;22.50;;;;;19.21;41.22;101381.31;5095020;27;45502;-73
2022/05/04 10:53:49;;;;;;;;;30.75;25.25;;;;;19.38;41.74;101411.13;5095716;27;45453;-72
2022/05/04 10:56:16;;;;;;;;;33.50;27.75;;;;;19.53;41.53;101419.25;5095869;27;45441;-72
2022/05/04 10:59:01;;;;;;;;;37.25;29.00;;;;;19.37;40.70;101374.06;5095599;27;45582;-71
2022/05/04 11:01:28;;;;;;;;;28.00;23.25;;;;;19.51;41.76;101411.09;5101974;27;45432;-73
2022/05/04 11:04:09;;;;;;;;;30.75;28.00;;;;;19.42;41.85;101384.03;5108302;27;45340;-72
2022/05/04 11:06:38;;;;;;;;;30.75;26.25;;;;;19.72;41.36;101406.59;5109771;27;45617;-72
2022/05/04 11:09:15;;;;;;;;;31.50;24.75;;;;;19.83;40.70;101407.53;5106428;27;45345;-72
2022/05/04 11:11:42;;;;;;;;;25.00;23.25;;;;;19.83;40.35;101390.34;5094386;27;45711;-72
2022/05/04 11:14:12;;;;;;;;;22.25;20.50;;;;;19.96;40.60;101391.22;5094437;27;45443;-72
2022/05/04 11:16:39;;;;;;;;;25.00;22.25;;;;;19.96;40.05;101369.53;5089901;27;45679;-72
2022/05/04 11:19:05;;;;;;;;;22.50;21.00;;;;;20.11;39.47;101369.47;5094910;27;45620;-72
2022/05/04 11:21:32;;;;;;;;;26.00;22.50;;;;;20.10;39.69;101389.38;5094303;27;45532;-73
2022/05/04 11:24:00;;;;;;;;;21.75;18.00;;;;;20.13;39.45;101393.88;5094098;27;45491;-72
2022/05/04 11:26:33;;;;;;;;;19.25;16.50;;;;;20.13;39.25;101366.75;5094642;27;45601;-72
2022/05/04 11:28:58;;;;;;;;;20.00;18.25;;;;;20.06;38.78;101341.47;5094613;27;45470;-72
2022/05/04 11:31:24;;;;;;;;;23.75;21.25;;;;;20.28;38.49;101382.09;5094511;27;46094;-72
2022/05/04 11:33:50;;;;;;;;;27.25;21.75;;;;;20.24;39.01;101381.19;5094589;27;45550;-71
2022/05/04 11:36:20;;;;;;;;;16.00;13.00;;;;;20.11;37.80;101361.34;5094818;27;45403;-73
2022/05/04 11:38:47;;;;;;;;;16.50;14.00;;;;;19.92;37.68;101340.63;5094660;27;45337;-71